Capitol Logistics 1155


EBLG
Liège Airport
Liege, BE
GMMN
Mohammed V International Airport
Casablanca, MA

Route Details

Aircraft Information
Primary: Boeing 737-800BCF
Backup: Not Available
Route Data
Distance: 1185nm
Sched. Duration: 2h 45m
Avg. Duration: 3h 41m (+96m)
Times Flown: 1
Recm'd Route: Not Available
Planned Altitude: 36,000ft
Origin Wx: EBLG 270950Z 15010KT 120V180 9999 -RADZ SCT011 BKN013 02/00 Q0997 BECMG 4000 -SNRA BKN008
Dest. Wx: GMMN 271000Z 02009KT CAVOK 15/10 Q1025 NOSIG
Notes:

Financial History
Total Freight: 44,880lbs
Average Load: 44,880lbs/flt
Fuel Used: 20,150lbs
Avg. Fuel Used: 20,150lbs/flt
Fuel Expense: $22,367
Avg. Fuel Expense: $22,367
Avg. Fuel Cost: $1.11/lbs
Total Gross Income: $270,626
Pilot Pay: $229
Total Expenses: $29,280
Total Revenue: $218,137
Average Revenue: $270,626.41